createdAt,value
2023-03-18T00:01:53.312Z,0.1
2023-03-18T00:06:53.555Z,0.2
2023-03-18T00:11:53.453Z,0.1
2023-03-18T00:16:53.371Z,0.2
2023-03-18T00:21:53.382Z,0.2
2023-03-18T00:26:53.418Z,0.2
2023-03-18T00:31:53.289Z,0.2
2023-03-18T00:36:55.999Z,0.3
2023-03-18T00:41:53.359Z,0.1
2023-03-18T00:46:53.485Z,0.2
2023-03-18T00:51:53.668Z,0.1
2023-03-18T00:56:53.420Z,0.2
2023-03-18T01:01:53.420Z,0.2
2023-03-18T01:06:53.544Z,0.1
2023-03-18T01:11:53.442Z,0.1
2023-03-18T01:21:53.680Z,0.1
2023-03-18T01:26:54.000Z,0.3
2023-03-18T01:31:53.762Z,0.2
2023-03-18T01:36:53.471Z,0.2
2023-03-18T01:41:53.519Z,0.2
2023-03-18T01:46:53.369Z,0.1
2023-03-18T01:51:54.885Z,0.2
2023-03-18T01:56:53.418Z,0.2
2023-03-18T02:01:53.468Z,0.2
2023-03-18T02:06:53.361Z,0.2
2023-03-18T02:16:53.382Z,0.2
2023-03-18T02:21:53.521Z,0.2
2023-03-18T02:26:53.806Z,0.2
2023-03-18T02:31:53.435Z,0.2
2023-03-18T02:36:53.529Z,0.2
2023-03-18T02:41:53.398Z,0.2
2023-03-18T02:46:53.381Z,0.2
2023-03-18T02:51:53.448Z,0.2
2023-03-18T02:56:53.577Z,0.2
2023-03-18T03:01:53.467Z,0.1
2023-03-18T03:06:53.353Z,0.2
2023-03-18T03:11:53.365Z,0.1
2023-03-18T03:16:53.389Z,0.2
2023-03-18T03:21:53.438Z,0.2
2023-03-18T03:26:54.202Z,0.1
2023-03-18T03:31:53.514Z,0.2
2023-03-18T03:36:53.617Z,0.2
2023-03-18T03:41:53.480Z,0.2
2023-03-18T03:46:53.468Z,0.2
2023-03-18T03:51:53.380Z,0.2
2023-03-18T03:56:53.463Z,0.2
2023-03-18T04:01:53.432Z,0.3
2023-03-18T04:06:53.428Z,0.2
2023-03-18T04:11:53.610Z,0.2
2023-03-18T04:16:53.401Z,0.1
2023-03-18T04:21:53.511Z,0.1
2023-03-18T04:26:53.491Z,0.2
2023-03-18T04:31:53.475Z,0.2
2023-03-18T04:36:53.410Z,0.2
2023-03-18T04:41:53.550Z,0.2
2023-03-18T04:46:53.415Z,0.2
2023-03-18T04:51:53.511Z,0.2
2023-03-18T04:56:53.375Z,0.3
2023-03-18T05:01:53.484Z,0.2
2023-03-18T05:06:53.337Z,0.2
2023-03-18T05:11:53.460Z,0.2
2023-03-18T05:16:53.358Z,0.2
2023-03-18T05:21:53.459Z,0.2
2023-03-18T05:26:53.496Z,0.2
2023-03-18T05:31:53.521Z,0.3
2023-03-18T05:36:53.418Z,0.3
2023-03-18T05:41:53.415Z,0.4
2023-03-18T05:46:53.380Z,0.5
2023-03-18T05:51:56.551Z,0.4
2023-03-18T05:56:53.408Z,0.5
2023-03-18T06:01:53.421Z,0.6
2023-03-18T06:06:53.455Z,0.7
2023-03-18T06:11:53.391Z,0.8
2023-03-18T06:16:53.487Z,0.1
2023-03-18T06:21:53.556Z,0.12
2023-03-18T06:26:53.522Z,0.13
2023-03-18T06:31:53.498Z,0.16
2023-03-18T06:36:53.450Z,0.17
2023-03-18T06:46:58.887Z,0.18
2023-03-18T06:51:58.561Z,0.21
2023-03-18T06:56:58.575Z,0.24
2023-03-18T07:01:58.588Z,0.24
2023-03-18T07:06:58.456Z,0.26
2023-03-18T07:11:58.567Z,0.26
2023-03-18T07:16:58.383Z,0.26
2023-03-18T07:21:58.611Z,0.3
2023-03-18T07:26:58.515Z,0.31
2023-03-18T07:31:58.417Z,0.33
2023-03-18T07:36:58.739Z,0.35
2023-03-18T07:47:02.518Z,0.42
2023-03-18T07:52:02.689Z,0.4
2023-03-18T07:57:02.747Z,0.47
2023-03-18T08:02:02.836Z,0.71
2023-03-18T08:07:03.288Z,0.73
2023-03-18T08:12:02.724Z,0.77
2023-03-18T08:17:05.451Z,1.29
2023-03-18T08:22:02.917Z,1.8
2023-03-18T08:27:02.795Z,2.3
2023-03-18T08:32:02.461Z,2.63
2023-03-18T08:37:02.539Z,3.93
2023-03-18T08:42:02.911Z,2.28
2023-03-18T08:47:02.466Z,2.91
2023-03-18T09:02:04.189Z,4.14
2023-03-18T09:07:02.577Z,5.21
2023-03-18T09:12:02.430Z,5.33
2023-03-18T09:17:03.433Z,5.38
2023-03-18T09:22:03.523Z,5.33
2023-03-18T09:27:03.579Z,5.32
2023-03-18T09:32:03.381Z,4.23
2023-03-18T09:37:03.627Z,5.43
2023-03-18T09:42:03.767Z,4.61
2023-03-18T09:47:04.689Z,5.62
2023-03-18T09:52:03.642Z,5.94
2023-03-18T09:57:11.112Z,6.77
2023-03-18T10:02:03.586Z,7.77
2023-03-18T10:07:03.418Z,6.78
2023-03-18T10:12:03.647Z,5.25
2023-03-18T10:17:03.487Z,6.27
2023-03-18T10:22:23.973Z,5.68
2023-03-18T10:27:03.597Z,7.64
2023-03-18T10:32:03.640Z,7.2
2023-03-18T10:37:03.588Z,5.4
2023-03-18T10:42:03.552Z,5.53
2023-03-18T10:47:03.723Z,8.24
2023-03-18T10:52:03.782Z,6.86
2023-03-18T10:57:21.799Z,5
2023-03-18T11:02:03.599Z,0.8
2023-03-18T11:07:04.022Z,0.56
2023-03-18T11:12:03.658Z,7.43
2023-03-18T11:17:03.884Z,6.99
2023-03-18T11:22:03.569Z,1.37
2023-03-18T11:27:04.079Z,0.54
2023-03-18T11:32:03.760Z,0.73
2023-03-18T11:37:03.947Z,0.31
2023-03-18T11:42:03.518Z,0.3
2023-03-18T11:47:03.632Z,0.3
2023-03-18T11:52:03.572Z,0.28
2023-03-18T11:57:30.259Z,0.27
2023-03-18T12:02:03.612Z,0.25
2023-03-18T12:07:03.613Z,0.23
2023-03-18T12:12:03.543Z,0.2
2023-03-18T12:17:03.596Z,0.2
2023-03-18T12:22:03.602Z,0.22
2023-03-18T12:27:03.622Z,0.21
2023-03-18T12:32:03.866Z,0.19
2023-03-18T12:37:03.836Z,0.4
2023-03-18T12:42:03.624Z,0.21
2023-03-18T12:47:03.654Z,0.26
2023-03-18T12:52:03.547Z,0.24
2023-03-18T12:57:20.255Z,0.31
2023-03-18T13:02:03.792Z,0.3
2023-03-18T13:07:04.320Z,0.3
2023-03-18T13:12:04.023Z,0.4
2023-03-18T13:17:03.967Z,0.23
2023-03-18T13:22:03.911Z,0.17
2023-03-18T13:27:03.981Z,0.9
2023-03-18T13:32:03.867Z,0.2
2023-03-18T13:37:03.638Z,0.2
2023-03-18T13:42:03.870Z,0.3
2023-03-18T13:47:03.860Z,0.2
2023-03-18T13:52:03.626Z,0.16
2023-03-18T13:57:24.212Z,0.8
2023-03-18T14:02:03.716Z,0.2
2023-03-18T14:07:03.657Z,0.19
2023-03-18T14:12:03.860Z,0.13
2023-03-18T14:17:03.588Z,0.14
2023-03-18T14:22:03.974Z,0.13
2023-03-18T14:27:03.674Z,0.23
2023-03-18T14:32:03.830Z,0.16
2023-03-18T14:37:04.140Z,0.16
2023-03-18T14:42:03.767Z,0.11
2023-03-18T14:47:04.321Z,0.14
2023-03-18T14:52:03.538Z,0.2
2023-03-18T14:57:26.565Z,0.26
2023-03-18T15:02:03.640Z,0.32
2023-03-18T15:07:03.540Z,0.24
2023-03-18T15:12:03.534Z,0.23
2023-03-18T15:17:03.633Z,0.21
2023-03-18T15:22:03.911Z,0.2
2023-03-18T15:27:03.606Z,0.17
2023-03-18T15:32:04.111Z,0.18
2023-03-18T15:37:03.725Z,0.16
2023-03-18T15:42:03.705Z,0.17
2023-03-18T15:47:03.618Z,0.12
2023-03-18T15:52:03.847Z,0.9
2023-03-18T15:57:19.676Z,0.11
2023-03-18T16:02:03.718Z,0.13
2023-03-18T16:07:03.588Z,0.13
2023-03-18T16:12:03.895Z,0.12
2023-03-18T16:17:03.634Z,0.11
2023-03-18T16:22:03.526Z,0.9
2023-03-18T16:27:03.811Z,0.6
2023-03-18T16:32:04.226Z,0.5
2023-03-18T16:37:07.330Z,0.6
2023-03-18T16:42:06.043Z,0.8
2023-03-18T16:47:13.109Z,0.6
2023-03-18T16:52:06.748Z,0.5
2023-03-18T16:57:21.220Z,0.4
2023-03-18T17:02:03.991Z,0.5
2023-03-18T17:07:05.452Z,0.5
2023-03-18T17:12:03.853Z,0.3
2023-03-18T17:17:03.598Z,0.3
2023-03-18T17:22:04.334Z,0.2
2023-03-18T17:27:03.935Z,0.2
2023-03-18T17:32:03.702Z,0.2
2023-03-18T17:37:04.237Z,0.1
2023-03-18T17:42:03.708Z,0.2
2023-03-18T17:47:03.702Z,0.2
2023-03-18T17:52:03.959Z,0.1
2023-03-18T17:57:50.396Z,0.1
2023-03-18T18:02:07.887Z,0.3
2023-03-18T18:17:03.721Z,0.2
2023-03-18T18:22:03.783Z,0.1
2023-03-18T18:27:03.561Z,0.3
2023-03-18T18:32:03.692Z,0.2
2023-03-18T18:37:04.460Z,0.2
2023-03-18T18:42:03.760Z,0.2
2023-03-18T18:47:03.888Z,0.2
2023-03-18T18:52:03.965Z,0.2
2023-03-18T18:57:03.615Z,0.2
2023-03-18T19:02:03.712Z,0.2
2023-03-18T19:07:03.601Z,0.2
2023-03-18T19:12:03.917Z,0.2
2023-03-18T19:17:04.153Z,0.2
2023-03-18T19:22:03.692Z,0.2
2023-03-18T19:27:03.714Z,0.2
2023-03-18T19:32:03.821Z,0.2
2023-03-18T19:37:04.043Z,0.2
2023-03-18T19:42:03.629Z,0.2
2023-03-18T19:47:03.664Z,0.2
2023-03-18T19:52:03.615Z,0.2
2023-03-18T19:57:03.589Z,0.2
2023-03-18T20:12:04.766Z,0.2
2023-03-18T20:17:04.013Z,0.2
2023-03-18T20:22:03.812Z,0.2
2023-03-18T20:27:03.871Z,0.2
2023-03-18T20:32:03.642Z,0.2
2023-03-18T20:37:03.766Z,0.2
2023-03-18T20:42:03.909Z,0.2
2023-03-18T20:47:03.709Z,0.2
2023-03-18T20:52:03.637Z,0.2
2023-03-18T20:57:03.866Z,0.3
2023-03-18T21:02:03.736Z,0.2
2023-03-18T21:07:03.830Z,0.1
2023-03-18T21:12:03.730Z,0.3
2023-03-18T21:17:03.757Z,0.1
2023-03-18T21:22:03.628Z,0.3
2023-03-18T21:27:06.645Z,0.1
2023-03-18T21:32:03.679Z,0.2
2023-03-18T21:37:04.671Z,0.2
2023-03-18T21:42:03.784Z,0.2
2023-03-18T21:47:03.679Z,0.1
2023-03-18T21:52:03.674Z,0.2
2023-03-18T21:57:03.945Z,0.2
2023-03-18T22:02:03.653Z,0.1
2023-03-18T22:07:03.654Z,0.2
2023-03-18T22:12:03.901Z,0.2
2023-03-18T22:17:03.804Z,0.2
2023-03-18T22:22:03.829Z,0.2
2023-03-18T22:27:03.794Z,0.2
2023-03-18T22:32:03.680Z,0.2
2023-03-18T22:37:03.764Z,0.2
2023-03-18T22:42:03.792Z,0.2
2023-03-18T22:47:03.783Z,0.2
2023-03-18T22:52:04.960Z,0.2
2023-03-18T22:57:05.134Z,0.2
2023-03-18T23:02:04.049Z,0.2
2023-03-18T23:07:04.071Z,0.2
2023-03-18T23:12:04.227Z,0.2
2023-03-18T23:17:03.787Z,0.2
2023-03-18T23:22:03.967Z,0.2
2023-03-18T23:27:03.803Z,0.2
2023-03-18T23:32:03.945Z,0.2
2023-03-18T23:37:03.789Z,0.2
2023-03-18T23:42:03.871Z,0.1
2023-03-18T23:47:04.263Z,0.2
2023-03-18T23:52:03.729Z,0.2
2023-03-18T23:57:03.772Z,0.2
